OIAG  Aghajari Airport

Add Bookmark

Iran

Status
Operational
Latitude Longitude
30° 44' 39" N 49° 40' 37" E
30.744400 49.677200
Local (DST + 5) UTC (GMT + 4)
Oct 25, 2014 06:46 Oct 25, 2014 15:16
Sunrise-Sunset Local UTC
Begin Civil Twilight 05:55 02:25
Sunrise 06:19 02:49
Sunset 05:30 14:00
End Civil Twilight 05:55 14:25

Current Weather

METAR Observed VFR
OIAG 251400Z 31010KT CAVOK 33/03 Q1011 Sat, Oct 25, 2014 @ 14:00 UTC
(1 Hour, 16 Minutes ago)
Visual Flight Rules
Wind Visibility Clouds Conditions
310° at 10 knots (19 kph) 10 km or more
  • Clear skies
  • No significant weather
Temperatures Readings Precipitation
Current Temp 33°C (91°F)
Dewpoint 3°C (37°F)
Humidity 15%
Altimeter 29.85"Hg
Sea Level Pressure 1011mb
Field Elevation 95.14'
None Recorded

Additional weather within a 92.6km radius of OIAG

Map ICAO Location
OIAM 54.4km W (248°)

24 Hour Weather History

Loading
-

24 Hour Weather Graphs

Loading
-

CheckWX.com is intended as a tool to help pilots better visualize weather data. It is not intended as a substitute for an official weather briefing obtained from a Flight Service Station. CheckWX.com does not meet the FAA requirements for an official pre-flight weather briefing. Therefore, it's important that pilots still call and obtain an official FSS pre-flight weather briefing.